sensor_id;sensor_type;location;lat;lon;timestamp;P1;durP1;ratioP1;P2;durP2;ratioP2
56511;SDS011;42408;53.238;5.686;2022-09-27T00:02:47;4.03;;;1.05;;
56511;SDS011;42408;53.238;5.686;2022-09-27T00:05:13;3.80;;;1.37;;
56511;SDS011;42408;53.238;5.686;2022-09-27T00:07:40;10.13;;;1.92;;
56511;SDS011;42408;53.238;5.686;2022-09-27T00:10:06;3.03;;;0.80;;
56511;SDS011;42408;53.238;5.686;2022-09-27T00:12:32;1.40;;;1.15;;
56511;SDS011;42408;53.238;5.686;2022-09-27T00:14:59;1.27;;;0.70;;
56511;SDS011;42408;53.238;5.686;2022-09-27T00:17:26;3.85;;;1.10;;
56511;SDS011;42408;53.238;5.686;2022-09-27T00:19:52;4.55;;;1.10;;
56511;SDS011;42408;53.238;5.686;2022-09-27T00:22:20;4.47;;;1.10;;
56511;SDS011;42408;53.238;5.686;2022-09-27T00:24:48;7.60;;;2.10;;
56511;SDS011;42408;53.238;5.686;2022-09-27T00:27:14;11.53;;;2.23;;
56511;SDS011;42408;53.238;5.686;2022-09-27T00:29:39;5.07;;;1.30;;
56511;SDS011;42408;53.238;5.686;2022-09-27T00:32:05;2.10;;;1.07;;
56511;SDS011;42408;53.238;5.686;2022-09-27T00:34:30;4.93;;;1.03;;
56511;SDS011;42408;53.238;5.686;2022-09-27T00:36:56;1.67;;;1.00;;
56511;SDS011;42408;53.238;5.686;2022-09-27T00:39:22;3.37;;;1.13;;
56511;SDS011;42408;53.238;5.686;2022-09-27T00:41:47;4.40;;;1.27;;
56511;SDS011;42408;53.238;5.686;2022-09-27T00:49:30;5.05;;;1.70;;
56511;SDS011;42408;53.238;5.686;2022-09-27T00:52:23;8.02;;;1.52;;
56511;SDS011;42408;53.238;5.686;2022-09-27T00:55:00;6.05;;;1.27;;
56511;SDS011;42408;53.238;5.686;2022-09-27T00:57:30;6.60;;;1.75;;
56511;SDS011;42408;53.238;5.686;2022-09-27T01:00:09;3.40;;;1.27;;
56511;SDS011;42408;53.238;5.686;2022-09-27T01:02:37;3.30;;;1.15;;
56511;SDS011;42408;53.238;5.686;2022-09-27T01:05:05;5.70;;;1.10;;
56511;SDS011;42408;53.238;5.686;2022-09-27T01:07:34;4.78;;;1.50;;
56511;SDS011;42408;53.238;5.686;2022-09-27T01:09:59;3.27;;;0.97;;
56511;SDS011;42408;53.238;5.686;2022-09-27T01:15:07;3.42;;;1.10;;
56511;SDS011;42408;53.238;5.686;2022-09-27T01:23:47;4.78;;;0.80;;
56511;SDS011;42408;53.238;5.686;2022-09-27T01:34:38;3.60;;;1.13;;
56511;SDS011;42408;53.238;5.686;2022-09-27T01:37:11;5.18;;;1.40;;
56511;SDS011;42408;53.238;5.686;2022-09-27T01:39:56;3.97;;;1.42;;
56511;SDS011;42408;53.238;5.686;2022-09-27T01:42:36;7.63;;;1.48;;
56511;SDS011;42408;53.238;5.686;2022-09-27T01:45:08;5.93;;;1.75;;
56511;SDS011;42408;53.238;5.686;2022-09-27T01:50:38;5.28;;;1.35;;
56511;SDS011;42408;53.238;5.686;2022-09-27T01:53:08;6.30;;;1.23;;
56511;SDS011;42408;53.238;5.686;2022-09-27T01:55:47;4.53;;;0.73;;
56511;SDS011;42408;53.238;5.686;2022-09-27T01:58:23;1.73;;;0.90;;
56511;SDS011;42408;53.238;5.686;2022-09-27T02:00:56;4.13;;;0.98;;
56511;SDS011;42408;53.238;5.686;2022-09-27T02:03:43;5.00;;;1.10;;
56511;SDS011;42408;53.238;5.686;2022-09-27T02:06:14;2.00;;;0.85;;
56511;SDS011;42408;53.238;5.686;2022-09-27T02:08:55;2.03;;;0.70;;
56511;SDS011;42408;53.238;5.686;2022-09-27T02:11:25;1.38;;;0.70;;
56511;SDS011;42408;53.238;5.686;2022-09-27T02:16:28;4.13;;;1.00;;
56511;SDS011;42408;53.238;5.686;2022-09-27T02:32:43;2.67;;;1.10;;
56511;SDS011;42408;53.238;5.686;2022-09-27T02:35:11;8.33;;;1.37;;
56511;SDS011;42408;53.238;5.686;2022-09-27T02:37:48;3.75;;;1.10;;
56511;SDS011;42408;53.238;5.686;2022-09-27T02:42:41;0.80;;;0.80;;
56511;SDS011;42408;53.238;5.686;2022-09-27T02:45:08;2.47;;;0.85;;
56511;SDS011;42408;53.238;5.686;2022-09-27T02:53:33;1.90;;;0.85;;
56511;SDS011;42408;53.238;5.686;2022-09-27T02:56:18;2.85;;;0.88;;
56511;SDS011;42408;53.238;5.686;2022-09-27T03:06:34;6.75;;;1.92;;
56511;SDS011;42408;53.238;5.686;2022-09-27T03:09:02;6.85;;;2.00;;
56511;SDS011;42408;53.238;5.686;2022-09-27T03:11:27;5.07;;;1.47;;
56511;SDS011;42408;53.238;5.686;2022-09-27T03:13:53;5.37;;;1.50;;
56511;SDS011;42408;53.238;5.686;2022-09-27T03:16:19;5.17;;;1.27;;
56511;SDS011;42408;53.238;5.686;2022-09-27T03:18:44;4.67;;;1.80;;
56511;SDS011;42408;53.238;5.686;2022-09-27T03:21:10;7.53;;;1.50;;
56511;SDS011;42408;53.238;5.686;2022-09-27T03:23:35;9.00;;;1.43;;
56511;SDS011;42408;53.238;5.686;2022-09-27T03:26:02;6.55;;;1.50;;
56511;SDS011;42408;53.238;5.686;2022-09-27T03:28:27;5.93;;;1.40;;
56511;SDS011;42408;53.238;5.686;2022-09-27T03:30:54;5.63;;;1.55;;
56511;SDS011;42408;53.238;5.686;2022-09-27T03:33:20;3.60;;;1.13;;
56511;SDS011;42408;53.238;5.686;2022-09-27T03:35:45;4.80;;;1.20;;
56511;SDS011;42408;53.238;5.686;2022-09-27T03:38:11;6.45;;;1.17;;
56511;SDS011;42408;53.238;5.686;2022-09-27T03:40:37;4.57;;;1.23;;
56511;SDS011;42408;53.238;5.686;2022-09-27T03:43:03;7.03;;;1.40;;
56511;SDS011;42408;53.238;5.686;2022-09-27T03:45:29;3.63;;;1.20;;
56511;SDS011;42408;53.238;5.686;2022-09-27T03:47:54;4.43;;;1.60;;
56511;SDS011;42408;53.238;5.686;2022-09-27T03:50:20;7.20;;;1.40;;
56511;SDS011;42408;53.238;5.686;2022-09-27T03:52:46;6.60;;;1.40;;
56511;SDS011;42408;53.238;5.686;2022-09-27T03:55:11;4.10;;;1.00;;
56511;SDS011;42408;53.238;5.686;2022-09-27T03:57:38;6.40;;;1.23;;
56511;SDS011;42408;53.238;5.686;2022-09-27T04:00:04;5.85;;;1.30;;
56511;SDS011;42408;53.238;5.686;2022-09-27T04:02:31;5.13;;;1.50;;
56511;SDS011;42408;53.238;5.686;2022-09-27T04:04:56;5.83;;;1.30;;
56511;SDS011;42408;53.238;5.686;2022-09-27T04:07:22;2.77;;;1.00;;
56511;SDS011;42408;53.238;5.686;2022-09-27T04:09:48;2.73;;;1.10;;
56511;SDS011;42408;53.238;5.686;2022-09-27T04:12:14;4.77;;;1.40;;
56511;SDS011;42408;53.238;5.686;2022-09-27T04:14:40;5.30;;;1.43;;
56511;SDS011;42408;53.238;5.686;2022-09-27T04:17:05;6.23;;;1.37;;
56511;SDS011;42408;53.238;5.686;2022-09-27T04:19:31;6.00;;;2.20;;
56511;SDS011;42408;53.238;5.686;2022-09-27T04:21:57;5.43;;;1.30;;
56511;SDS011;42408;53.238;5.686;2022-09-27T04:24:22;5.13;;;1.43;;
56511;SDS011;42408;53.238;5.686;2022-09-27T04:26:49;3.72;;;1.00;;
56511;SDS011;42408;53.238;5.686;2022-09-27T04:29:15;2.95;;;1.20;;
56511;SDS011;42408;53.238;5.686;2022-09-27T04:31:41;5.13;;;1.42;;
56511;SDS011;42408;53.238;5.686;2022-09-27T04:34:08;6.20;;;1.45;;
56511;SDS011;42408;53.238;5.686;2022-09-27T04:36:34;7.63;;;1.63;;
56511;SDS011;42408;53.238;5.686;2022-09-27T04:39:01;4.95;;;1.38;;
56511;SDS011;42408;53.238;5.686;2022-09-27T04:41:28;8.07;;;1.38;;
56511;SDS011;42408;53.238;5.686;2022-09-27T04:43:55;5.30;;;1.17;;
56511;SDS011;42408;53.238;5.686;2022-09-27T04:46:21;3.10;;;1.08;;
56511;SDS011;42408;53.238;5.686;2022-09-27T04:48:48;4.35;;;1.05;;
56511;SDS011;42408;53.238;5.686;2022-09-27T04:51:14;3.87;;;0.90;;
56511;SDS011;42408;53.238;5.686;2022-09-27T04:56:07;3.67;;;1.05;;
56511;SDS011;42408;53.238;5.686;2022-09-27T04:58:33;3.83;;;1.10;;
56511;SDS011;42408;53.238;5.686;2022-09-27T05:00:59;1.97;;;0.90;;
56511;SDS011;42408;53.238;5.686;2022-09-27T05:03:27;5.50;;;1.23;;
56511;SDS011;42408;53.238;5.686;2022-09-27T05:05:53;2.80;;;1.27;;
56511;SDS011;42408;53.238;5.686;2022-09-27T05:08:19;5.25;;;1.50;;
56511;SDS011;42408;53.238;5.686;2022-09-27T05:10:45;7.43;;;1.40;;
56511;SDS011;42408;53.238;5.686;2022-09-27T05:13:11;5.25;;;1.40;;
56511;SDS011;42408;53.238;5.686;2022-09-27T05:15:37;4.13;;;1.10;;
56511;SDS011;42408;53.238;5.686;2022-09-27T05:18:04;4.20;;;1.10;;
56511;SDS011;42408;53.238;5.686;2022-09-27T05:20:31;4.60;;;1.50;;
56511;SDS011;42408;53.238;5.686;2022-09-27T05:22:56;6.77;;;2.53;;
56511;SDS011;42408;53.238;5.686;2022-09-27T05:25:22;6.27;;;1.60;;
56511;SDS011;42408;53.238;5.686;2022-09-27T05:27:49;5.53;;;1.33;;
56511;SDS011;42408;53.238;5.686;2022-09-27T05:32:41;4.25;;;0.95;;
56511;SDS011;42408;53.238;5.686;2022-09-27T05:35:08;4.97;;;1.50;;
56511;SDS011;42408;53.238;5.686;2022-09-27T05:37:34;4.78;;;1.00;;
56511;SDS011;42408;53.238;5.686;2022-09-27T05:40:00;7.23;;;1.73;;
56511;SDS011;42408;53.238;5.686;2022-09-27T05:42:26;7.10;;;1.20;;
56511;SDS011;42408;53.238;5.686;2022-09-27T05:44:52;4.63;;;1.47;;
56511;SDS011;42408;53.238;5.686;2022-09-27T05:47:17;3.67;;;1.10;;
56511;SDS011;42408;53.238;5.686;2022-09-27T05:49:43;8.83;;;2.47;;
56511;SDS011;42408;53.238;5.686;2022-09-27T05:52:08;5.23;;;2.50;;
56511;SDS011;42408;53.238;5.686;2022-09-27T05:54:34;3.30;;;1.10;;
56511;SDS011;42408;53.238;5.686;2022-09-27T05:57:00;7.27;;;1.20;;
56511;SDS011;42408;53.238;5.686;2022-09-27T05:59:25;4.43;;;1.33;;
56511;SDS011;42408;53.238;5.686;2022-09-27T06:01:52;4.30;;;1.20;;
56511;SDS011;42408;53.238;5.686;2022-09-27T06:04:19;5.03;;;1.25;;
56511;SDS011;42408;53.238;5.686;2022-09-27T06:06:45;4.45;;;1.27;;
56511;SDS011;42408;53.238;5.686;2022-09-27T06:09:12;2.73;;;1.13;;
56511;SDS011;42408;53.238;5.686;2022-09-27T06:11:39;6.50;;;1.55;;
56511;SDS011;42408;53.238;5.686;2022-09-27T06:14:05;3.65;;;1.20;;
56511;SDS011;42408;53.238;5.686;2022-09-27T06:16:30;3.13;;;1.10;;
56511;SDS011;42408;53.238;5.686;2022-09-27T06:18:56;4.77;;;1.40;;
56511;SDS011;42408;53.238;5.686;2022-09-27T06:21:22;5.50;;;1.03;;
56511;SDS011;42408;53.238;5.686;2022-09-27T06:23:48;2.53;;;1.10;;
56511;SDS011;42408;53.238;5.686;2022-09-27T06:26:15;4.15;;;1.38;;
56511;SDS011;42408;53.238;5.686;2022-09-27T06:28:41;9.63;;;1.40;;
56511;SDS011;42408;53.238;5.686;2022-09-27T06:31:07;4.37;;;1.20;;
56511;SDS011;42408;53.238;5.686;2022-09-27T06:33:33;1.50;;;1.00;;
56511;SDS011;42408;53.238;5.686;2022-09-27T06:36:06;7.07;;;1.95;;
56511;SDS011;42408;53.238;5.686;2022-09-27T06:38:32;5.93;;;1.25;;
56511;SDS011;42408;53.238;5.686;2022-09-27T06:41:02;5.18;;;1.08;;
56511;SDS011;42408;53.238;5.686;2022-09-27T06:43:30;7.50;;;1.20;;
56511;SDS011;42408;53.238;5.686;2022-09-27T06:45:58;4.90;;;1.20;;
56511;SDS011;42408;53.238;5.686;2022-09-27T06:48:33;2.42;;;1.20;;
56511;SDS011;42408;53.238;5.686;2022-09-27T06:51:01;6.05;;;1.23;;
56511;SDS011;42408;53.238;5.686;2022-09-27T06:53:27;2.67;;;1.00;;
56511;SDS011;42408;53.238;5.686;2022-09-27T06:55:56;4.20;;;1.15;;
56511;SDS011;42408;53.238;5.686;2022-09-27T06:58:23;5.63;;;1.02;;
56511;SDS011;42408;53.238;5.686;2022-09-27T07:01:07;1.23;;;0.80;;
56511;SDS011;42408;53.238;5.686;2022-09-27T07:03:33;2.13;;;0.97;;
56511;SDS011;42408;53.238;5.686;2022-09-27T07:06:02;2.40;;;0.70;;
56511;SDS011;42408;53.238;5.686;2022-09-27T07:08:30;1.38;;;0.60;;
56511;SDS011;42408;53.238;5.686;2022-09-27T07:11:00;4.60;;;1.05;;
56511;SDS011;42408;53.238;5.686;2022-09-27T07:13:27;1.00;;;0.57;;
56511;SDS011;42408;53.238;5.686;2022-09-27T07:15:55;2.58;;;0.82;;
56511;SDS011;42408;53.238;5.686;2022-09-27T07:18:21;4.93;;;0.87;;
56511;SDS011;42408;53.238;5.686;2022-09-27T07:20:46;3.70;;;1.00;;
56511;SDS011;42408;53.238;5.686;2022-09-27T07:23:13;2.83;;;0.97;;
56511;SDS011;42408;53.238;5.686;2022-09-27T07:25:39;1.85;;;0.70;;
56511;SDS011;42408;53.238;5.686;2022-09-27T07:28:05;3.27;;;0.70;;
56511;SDS011;42408;53.238;5.686;2022-09-27T07:30:33;4.55;;;1.30;;
56511;SDS011;42408;53.238;5.686;2022-09-27T07:33:00;7.80;;;1.58;;
56511;SDS011;42408;53.238;5.686;2022-09-27T07:35:27;6.43;;;1.70;;
56511;SDS011;42408;53.238;5.686;2022-09-27T07:37:54;6.10;;;1.70;;
56511;SDS011;42408;53.238;5.686;2022-09-27T07:42:46;4.50;;;1.48;;
56511;SDS011;42408;53.238;5.686;2022-09-27T07:45:11;9.87;;;1.77;;
56511;SDS011;42408;53.238;5.686;2022-09-27T07:47:38;7.47;;;1.92;;
56511;SDS011;42408;53.238;5.686;2022-09-27T07:52:37;7.72;;;1.42;;
56511;SDS011;42408;53.238;5.686;2022-09-27T07:55:05;5.07;;;1.20;;
56511;SDS011;42408;53.238;5.686;2022-09-27T07:57:31;4.63;;;1.35;;
56511;SDS011;42408;53.238;5.686;2022-09-27T07:59:56;7.97;;;1.90;;
56511;SDS011;42408;53.238;5.686;2022-09-27T08:02:22;4.17;;;1.20;;
56511;SDS011;42408;53.238;5.686;2022-09-27T08:04:48;3.23;;;1.00;;
56511;SDS011;42408;53.238;5.686;2022-09-27T08:07:14;9.57;;;1.30;;
56511;SDS011;42408;53.238;5.686;2022-09-27T08:09:39;6.10;;;1.63;;
56511;SDS011;42408;53.238;5.686;2022-09-27T08:12:05;2.90;;;1.07;;
56511;SDS011;42408;53.238;5.686;2022-09-27T08:14:31;6.77;;;1.23;;
56511;SDS011;42408;53.238;5.686;2022-09-27T08:16:57;6.30;;;1.30;;
56511;SDS011;42408;53.238;5.686;2022-09-27T08:19:23;5.60;;;1.20;;
56511;SDS011;42408;53.238;5.686;2022-09-27T08:21:50;7.55;;;1.40;;
56511;SDS011;42408;53.238;5.686;2022-09-27T08:24:16;8.02;;;2.00;;
56511;SDS011;42408;53.238;5.686;2022-09-27T08:26:41;4.73;;;1.53;;
56511;SDS011;42408;53.238;5.686;2022-09-27T08:29:07;5.03;;;1.37;;
56511;SDS011;42408;53.238;5.686;2022-09-27T08:31:33;4.63;;;1.17;;
56511;SDS011;42408;53.238;5.686;2022-09-27T08:33:59;3.07;;;1.27;;
56511;SDS011;42408;53.238;5.686;2022-09-27T08:36:25;5.50;;;1.10;;
56511;SDS011;42408;53.238;5.686;2022-09-27T08:38:51;4.43;;;1.17;;
56511;SDS011;42408;53.238;5.686;2022-09-27T08:41:31;3.17;;;1.08;;
56511;SDS011;42408;53.238;5.686;2022-09-27T08:52:19;8.82;;;1.88;;
56511;SDS011;42408;53.238;5.686;2022-09-27T08:54:57;7.45;;;2.60;;
56511;SDS011;42408;53.238;5.686;2022-09-27T08:57:28;7.35;;;1.08;;
56511;SDS011;42408;53.238;5.686;2022-09-27T09:02:30;8.40;;;1.17;;
56511;SDS011;42408;53.238;5.686;2022-09-27T09:04:57;2.63;;;1.20;;
56511;SDS011;42408;53.238;5.686;2022-09-27T09:07:34;3.50;;;1.10;;
56511;SDS011;42408;53.238;5.686;2022-09-27T09:10:30;5.15;;;1.50;;
56511;SDS011;42408;53.238;5.686;2022-09-27T09:26:39;4.10;;;0.87;;
56511;SDS011;42408;53.238;5.686;2022-09-27T09:31:47;5.78;;;0.93;;
56511;SDS011;42408;53.238;5.686;2022-09-27T09:34:38;6.72;;;1.23;;
56511;SDS011;42408;53.238;5.686;2022-09-27T09:37:17;4.95;;;1.20;;
56511;SDS011;42408;53.238;5.686;2022-09-27T09:39:49;3.78;;;1.30;;
56511;SDS011;42408;53.238;5.686;2022-09-27T09:42:21;5.30;;;1.33;;
56511;SDS011;42408;53.238;5.686;2022-09-27T09:47:36;7.78;;;1.35;;
56511;SDS011;42408;53.238;5.686;2022-09-27T09:50:19;6.60;;;1.38;;
56511;SDS011;42408;53.238;5.686;2022-09-27T09:53:39;4.53;;;1.10;;
56511;SDS011;42408;53.238;5.686;2022-09-27T09:55:54;4.57;;;1.10;;
56511;SDS011;42408;53.238;5.686;2022-09-27T09:58:39;5.35;;;1.75;;
56511;SDS011;42408;53.238;5.686;2022-09-27T10:01:39;7.25;;;1.75;;
56511;SDS011;42408;53.238;5.686;2022-09-27T10:04:08;7.47;;;1.60;;
56511;SDS011;42408;53.238;5.686;2022-09-27T10:06:41;6.13;;;1.30;;
56511;SDS011;42408;53.238;5.686;2022-09-27T10:09:08;4.87;;;1.67;;
56511;SDS011;42408;53.238;5.686;2022-09-27T10:11:38;4.70;;;1.20;;
56511;SDS011;42408;53.238;5.686;2022-09-27T10:14:09;6.82;;;1.23;;
56511;SDS011;42408;53.238;5.686;2022-09-27T10:16:36;2.70;;;1.23;;
56511;SDS011;42408;53.238;5.686;2022-09-27T10:19:06;1.00;;;0.70;;
56511;SDS011;42408;53.238;5.686;2022-09-27T10:21:33;1.80;;;0.77;;
56511;SDS011;42408;53.238;5.686;2022-09-27T10:24:11;1.92;;;0.60;;
56511;SDS011;42408;53.238;5.686;2022-09-27T10:26:39;1.23;;;0.80;;
56511;SDS011;42408;53.238;5.686;2022-09-27T10:31:47;4.35;;;0.98;;
56511;SDS011;42408;53.238;5.686;2022-09-27T10:34:24;4.50;;;1.00;;
56511;SDS011;42408;53.238;5.686;2022-09-27T10:37:01;2.83;;;0.75;;
56511;SDS011;42408;53.238;5.686;2022-09-27T10:39:41;4.72;;;0.95;;
56511;SDS011;42408;53.238;5.686;2022-09-27T10:47:49;4.55;;;0.90;;
56511;SDS011;42408;53.238;5.686;2022-09-27T10:50:20;3.03;;;1.07;;
56511;SDS011;42408;53.238;5.686;2022-09-27T10:53:02;2.92;;;1.00;;
56511;SDS011;42408;53.238;5.686;2022-09-27T10:55:32;4.20;;;1.20;;
56511;SDS011;42408;53.238;5.686;2022-09-27T10:58:01;3.88;;;0.90;;
56511;SDS011;42408;53.238;5.686;2022-09-27T11:00:29;5.88;;;1.10;;
56511;SDS011;42408;53.238;5.686;2022-09-27T11:02:59;2.25;;;0.93;;
56511;SDS011;42408;53.238;5.686;2022-09-27T11:05:32;3.08;;;1.00;;
56511;SDS011;42408;53.238;5.686;2022-09-27T11:08:02;4.15;;;1.00;;
56511;SDS011;42408;53.238;5.686;2022-09-27T11:11:15;3.90;;;1.25;;
56511;SDS011;42408;53.238;5.686;2022-09-27T11:13:56;3.00;;;0.95;;
56511;SDS011;42408;53.238;5.686;2022-09-27T11:22:07;3.05;;;0.98;;
56511;SDS011;42408;53.238;5.686;2022-09-27T11:25:11;6.50;;;1.73;;
56511;SDS011;42408;53.238;5.686;2022-09-27T11:27:44;4.38;;;1.67;;
56511;SDS011;42408;53.238;5.686;2022-09-27T11:30:24;5.45;;;1.60;;
56511;SDS011;42408;53.238;5.686;2022-09-27T11:33:15;4.50;;;1.30;;
56511;SDS011;42408;53.238;5.686;2022-09-27T11:55:03;6.28;;;1.10;;
56511;SDS011;42408;53.238;5.686;2022-09-27T11:57:46;4.70;;;1.00;;
56511;SDS011;42408;53.238;5.686;2022-09-27T12:00:29;5.28;;;1.02;;
56511;SDS011;42408;53.238;5.686;2022-09-27T12:08:35;4.45;;;1.20;;
56511;SDS011;42408;53.238;5.686;2022-09-27T12:11:31;3.60;;;0.80;;
56511;SDS011;42408;53.238;5.686;2022-09-27T12:14:23;2.35;;;0.82;;
56511;SDS011;42408;53.238;5.686;2022-09-27T12:17:01;4.90;;;1.33;;
56511;SDS011;42408;53.238;5.686;2022-09-27T12:19:35;5.10;;;1.45;;
56511;SDS011;42408;53.238;5.686;2022-09-27T12:22:08;3.58;;;0.93;;
56511;SDS011;42408;53.238;5.686;2022-09-27T12:24:38;2.75;;;1.10;;
56511;SDS011;42408;53.238;5.686;2022-09-27T12:27:06;4.68;;;1.75;;
56511;SDS011;42408;53.238;5.686;2022-09-27T12:29:38;6.50;;;1.48;;
56511;SDS011;42408;53.238;5.686;2022-09-27T12:35:04;4.38;;;1.20;;
56511;SDS011;42408;53.238;5.686;2022-09-27T12:37:45;7.50;;;1.10;;
56511;SDS011;42408;53.238;5.686;2022-09-27T12:40:32;5.97;;;1.52;;
56511;SDS011;42408;53.238;5.686;2022-09-27T12:43:16;4.68;;;1.25;;
56511;SDS011;42408;53.238;5.686;2022-09-27T12:46:02;5.47;;;1.10;;
56511;SDS011;42408;53.238;5.686;2022-09-27T12:51:07;5.47;;;1.55;;
56511;SDS011;42408;53.238;5.686;2022-09-27T12:54:03;6.65;;;2.00;;
56511;SDS011;42408;53.238;5.686;2022-09-27T13:13:38;5.28;;;1.38;;
56511;SDS011;42408;53.238;5.686;2022-09-27T13:16:04;8.23;;;1.40;;
56511;SDS011;42408;53.238;5.686;2022-09-27T13:21:03;5.25;;;1.20;;
56511;SDS011;42408;53.238;5.686;2022-09-27T13:26:00;4.30;;;1.20;;
56511;SDS011;42408;53.238;5.686;2022-09-27T13:31:02;3.28;;;0.95;;
56511;SDS011;42408;53.238;5.686;2022-09-27T13:41:53;3.95;;;0.75;;
56511;SDS011;42408;53.238;5.686;2022-09-27T13:47:13;2.80;;;0.80;;
56511;SDS011;42408;53.238;5.686;2022-09-27T13:49:41;3.03;;;0.90;;
56511;SDS011;42408;53.238;5.686;2022-09-27T13:54:58;6.35;;;0.90;;
56511;SDS011;42408;53.238;5.686;2022-09-27T14:00:24;4.10;;;1.23;;
56511;SDS011;42408;53.238;5.686;2022-09-27T14:13:24;3.28;;;1.40;;
56511;SDS011;42408;53.238;5.686;2022-09-27T14:18:18;3.72;;;2.10;;
56511;SDS011;42408;53.238;5.686;2022-09-27T14:20:45;5.57;;;2.00;;
56511;SDS011;42408;53.238;5.686;2022-09-27T14:23:15;3.13;;;1.50;;
56511;SDS011;42408;53.238;5.686;2022-09-27T14:25:50;1.25;;;0.70;;
56511;SDS011;42408;53.238;5.686;2022-09-27T14:28:24;3.17;;;1.10;;
56511;SDS011;42408;53.238;5.686;2022-09-27T14:31:05;3.08;;;1.02;;
56511;SDS011;42408;53.238;5.686;2022-09-27T14:33:32;4.68;;;0.82;;
56511;SDS011;42408;53.238;5.686;2022-09-27T14:35:58;4.70;;;0.98;;
56511;SDS011;42408;53.238;5.686;2022-09-27T14:38:43;6.28;;;0.90;;
56511;SDS011;42408;53.238;5.686;2022-09-27T14:41:09;2.53;;;0.90;;
56511;SDS011;42408;53.238;5.686;2022-09-27T14:43:35;2.57;;;0.80;;
56511;SDS011;42408;53.238;5.686;2022-09-27T14:46:20;3.25;;;0.90;;
56511;SDS011;42408;53.238;5.686;2022-09-27T14:48:50;1.95;;;0.80;;
56511;SDS011;42408;53.238;5.686;2022-09-27T14:51:18;4.97;;;1.58;;
56511;SDS011;42408;53.238;5.686;2022-09-27T14:53:50;4.63;;;1.30;;
56511;SDS011;42408;53.238;5.686;2022-09-27T14:56:22;5.15;;;1.30;;
56511;SDS011;42408;53.238;5.686;2022-09-27T14:58:54;6.40;;;1.73;;
56511;SDS011;42408;53.238;5.686;2022-09-27T15:01:26;3.22;;;1.05;;
56511;SDS011;42408;53.238;5.686;2022-09-27T15:03:53;14.18;;;3.83;;
56511;SDS011;42408;53.238;5.686;2022-09-27T15:06:20;7.07;;;2.47;;
56511;SDS011;42408;53.238;5.686;2022-09-27T15:08:46;5.00;;;2.37;;
56511;SDS011;42408;53.238;5.686;2022-09-27T15:11:14;5.38;;;2.50;;
56511;SDS011;42408;53.238;5.686;2022-09-27T15:13:42;11.40;;;3.80;;
56511;SDS011;42408;53.238;5.686;2022-09-27T15:16:12;6.93;;;2.50;;
56511;SDS011;42408;53.238;5.686;2022-09-27T15:18:46;4.75;;;1.35;;
56511;SDS011;42408;53.238;5.686;2022-09-27T15:21:14;4.45;;;1.40;;
56511;SDS011;42408;53.238;5.686;2022-09-27T15:23:55;4.78;;;1.27;;
56511;SDS011;42408;53.238;5.686;2022-09-27T15:28:49;4.20;;;1.00;;
56511;SDS011;42408;53.238;5.686;2022-09-27T15:31:17;1.88;;;0.80;;
56511;SDS011;42408;53.238;5.686;2022-09-27T15:33:56;2.00;;;0.80;;
56511;SDS011;42408;53.238;5.686;2022-09-27T15:36:48;4.65;;;1.30;;
56511;SDS011;42408;53.238;5.686;2022-09-27T15:39:16;7.53;;;1.30;;
56511;SDS011;42408;53.238;5.686;2022-09-27T15:42:07;5.78;;;1.45;;
56511;SDS011;42408;53.238;5.686;2022-09-27T15:50:41;5.63;;;2.00;;
56511;SDS011;42408;53.238;5.686;2022-09-27T15:55:10;2.83;;;1.23;;
56511;SDS011;42408;53.238;5.686;2022-09-27T15:57:36;6.15;;;1.60;;
56511;SDS011;42408;53.238;5.686;2022-09-27T16:00:03;4.72;;;1.35;;
56511;SDS011;42408;53.238;5.686;2022-09-27T16:02:29;5.03;;;1.67;;
56511;SDS011;42408;53.238;5.686;2022-09-27T16:04:55;5.33;;;1.33;;
56511;SDS011;42408;53.238;5.686;2022-09-27T16:07:21;2.40;;;1.03;;
56511;SDS011;42408;53.238;5.686;2022-09-27T16:09:46;3.17;;;1.27;;
56511;SDS011;42408;53.238;5.686;2022-09-27T16:12:15;4.22;;;1.85;;
56511;SDS011;42408;53.238;5.686;2022-09-27T16:14:40;4.73;;;1.23;;
56511;SDS011;42408;53.238;5.686;2022-09-27T16:17:06;7.70;;;1.50;;
56511;SDS011;42408;53.238;5.686;2022-09-27T16:19:32;9.23;;;2.13;;
56511;SDS011;42408;53.238;5.686;2022-09-27T16:21:58;4.20;;;1.47;;
56511;SDS011;42408;53.238;5.686;2022-09-27T16:24:27;5.93;;;1.40;;
56511;SDS011;42408;53.238;5.686;2022-09-27T16:26:53;8.23;;;1.93;;
56511;SDS011;42408;53.238;5.686;2022-09-27T16:29:19;8.57;;;1.73;;
56511;SDS011;42408;53.238;5.686;2022-09-27T16:31:45;6.83;;;1.67;;
56511;SDS011;42408;53.238;5.686;2022-09-27T16:34:11;6.78;;;1.98;;
56511;SDS011;42408;53.238;5.686;2022-09-27T16:36:37;4.78;;;1.88;;
56511;SDS011;42408;53.238;5.686;2022-09-27T16:39:04;7.68;;;1.88;;
56511;SDS011;42408;53.238;5.686;2022-09-27T16:41:31;6.28;;;1.73;;
56511;SDS011;42408;53.238;5.686;2022-09-27T16:44:07;7.93;;;1.70;;
56511;SDS011;42408;53.238;5.686;2022-09-27T16:46:34;4.20;;;1.40;;
56511;SDS011;42408;53.238;5.686;2022-09-27T16:49:03;4.20;;;1.27;;
56511;SDS011;42408;53.238;5.686;2022-09-27T16:51:29;9.30;;;1.70;;
56511;SDS011;42408;53.238;5.686;2022-09-27T16:54:33;4.05;;;1.42;;
56511;SDS011;42408;53.238;5.686;2022-09-27T16:56:58;4.23;;;1.33;;
56511;SDS011;42408;53.238;5.686;2022-09-27T16:59:24;3.80;;;1.10;;
56511;SDS011;42408;53.238;5.686;2022-09-27T17:01:51;7.35;;;1.67;;
56511;SDS011;42408;53.238;5.686;2022-09-27T17:04:18;7.63;;;1.58;;
56511;SDS011;42408;53.238;5.686;2022-09-27T17:06:44;5.00;;;1.10;;
56511;SDS011;42408;53.238;5.686;2022-09-27T17:09:10;6.30;;;1.83;;
56511;SDS011;42408;53.238;5.686;2022-09-27T17:11:36;6.50;;;1.70;;
56511;SDS011;42408;53.238;5.686;2022-09-27T17:14:01;7.73;;;1.83;;
56511;SDS011;42408;53.238;5.686;2022-09-27T17:16:27;7.37;;;1.80;;
56511;SDS011;42408;53.238;5.686;2022-09-27T17:18:53;6.60;;;1.60;;
56511;SDS011;42408;53.238;5.686;2022-09-27T17:21:19;6.60;;;2.20;;
56511;SDS011;42408;53.238;5.686;2022-09-27T17:23:44;8.37;;;2.00;;
56511;SDS011;42408;53.238;5.686;2022-09-27T17:26:15;6.15;;;1.90;;
56511;SDS011;42408;53.238;5.686;2022-09-27T17:28:46;9.20;;;1.73;;
56511;SDS011;42408;53.238;5.686;2022-09-27T17:31:13;7.55;;;2.00;;
56511;SDS011;42408;53.238;5.686;2022-09-27T17:33:42;7.30;;;1.70;;
56511;SDS011;42408;53.238;5.686;2022-09-27T17:36:11;5.00;;;2.33;;
56511;SDS011;42408;53.238;5.686;2022-09-27T17:38:38;5.03;;;1.58;;
56511;SDS011;42408;53.238;5.686;2022-09-27T17:41:05;3.53;;;1.17;;
56511;SDS011;42408;53.238;5.686;2022-09-27T17:43:35;5.57;;;1.67;;
56511;SDS011;42408;53.238;5.686;2022-09-27T17:46:04;3.78;;;1.60;;
56511;SDS011;42408;53.238;5.686;2022-09-27T17:48:31;4.88;;;1.77;;
56511;SDS011;42408;53.238;5.686;2022-09-27T17:51:15;5.63;;;2.35;;
56511;SDS011;42408;53.238;5.686;2022-09-27T17:53:41;2.63;;;1.30;;
56511;SDS011;42408;53.238;5.686;2022-09-27T17:56:07;4.10;;;2.43;;
56511;SDS011;42408;53.238;5.686;2022-09-27T17:58:32;9.17;;;3.53;;
56511;SDS011;42408;53.238;5.686;2022-09-27T18:01:04;6.67;;;3.50;;
56511;SDS011;42408;53.238;5.686;2022-09-27T18:03:31;11.05;;;6.43;;
56511;SDS011;42408;53.238;5.686;2022-09-27T18:08:27;13.50;;;7.03;;
56511;SDS011;42408;53.238;5.686;2022-09-27T18:10:54;14.50;;;8.43;;
56511;SDS011;42408;53.238;5.686;2022-09-27T18:13:20;10.00;;;5.50;;
56511;SDS011;42408;53.238;5.686;2022-09-27T18:15:56;8.65;;;4.65;;
56511;SDS011;42408;53.238;5.686;2022-09-27T18:18:23;6.40;;;2.30;;
56511;SDS011;42408;53.238;5.686;2022-09-27T18:20:48;3.20;;;1.67;;
56511;SDS011;42408;53.238;5.686;2022-09-27T18:23:14;4.63;;;2.00;;
56511;SDS011;42408;53.238;5.686;2022-09-27T18:25:40;5.60;;;2.27;;
56511;SDS011;42408;53.238;5.686;2022-09-27T18:28:05;4.43;;;2.07;;
56511;SDS011;42408;53.238;5.686;2022-09-27T18:30:34;6.87;;;2.10;;
56511;SDS011;42408;53.238;5.686;2022-09-27T18:32:59;3.40;;;1.55;;
56511;SDS011;42408;53.238;5.686;2022-09-27T18:35:25;4.03;;;1.63;;